Hauptseite
METAR-TAF:

METAR-TAF

Flughäfen :

Zeltweg, Österreich

Fliegerhorst Hinterstoisser

Breite: 47-12N, Länge: 014-45E, Höhe: 677 m

Beobachtung

Neuester Wetterbericht von vor 36 Minuten, um 11:20 UTC
Wind 5 kt aus Nordost
Temperatur 17°C
Luftfeuchtigkeit 63%
Luftdruck 1023 hPa

METAR: LOXZ 211120Z 05005KT 25KM SCT055SC BKN070SC 17/10 Q1023 NOSIG

Zeit: 13:56 (11:56 UTC)

Prognose

Neuester Wetterbericht von vor 41 Minuten, um 11:15 UTC
Gültige Prognose vom 21 um 12 UTC bis 21 um 21 UTC
Wind 3 kt aus unterschiedlichen Richtungen
Sichtweite 10 km oder mehr
Aufgelockert bewölkt in der Höhe von 6000 ft
Aufgelockert bewölkt in der Höhe von 8000 ft
Zeitweise
vom 21 um 12 UTC bis 21 um 18 UTC
Wind 10 kt aus West/Nordwest

TAF: LOXZ 211115Z 2112/2121 VRB03KT 9999 SCT060 SCT080 TEMPO 2112/2118 30010KT

Wetterbeobachtungen und Prognosen von mehr als 4000 Flughäfen (METAR und TAF Bericht).

Die verfügbaren Stationen werden durch gelbe und rote Markierungen auf der Karte dargestellt.

Führen Sie die Maus auf sie, um den Namen der Station zu sehen.

Darauf klicken, um die Beobachtung von Wetterbeobachtungen und Prognosen zu sehen.

Um die Karte zu ändern : klicken Sie auf den grünen Tasten mit einem schwarzen Kreuz Zum Vergrößern, auf den grünen Button mit einem Gedankenstrich zu verkleinern, oder auf die grünen Pfeile für benachbarte Karten.


METAR-TAF: